Data for 09/05/2010

Time Sea-Level Adjusted Pressure Absolute Pressure Temperature Relative Humidity Dew Point   
(mb) (inHg) (mb) (inHg) (C) (F) (%) (C) (F)
00:05 1013 29.91 843 24.89 12.4 54.3 64 5.8 42.4
00:10 1013 29.91 843 24.89 12.3 54.2 65 5.9 42.6
00:15 1013 29.91 843 24.89 12.3 54.1 64 5.8 42.4
00:20 1013 29.91 843 24.89 12.1 53.7 66 5.9 42.6
00:25 1013 29.91 843 24.89 11.8 53.2 67 5.9 42.6
00:30 1013 29.91 843 24.89 11.5 52.7 67 5.7 42.2
00:35 1013 29.91 843 24.89 11.2 52.2 69 5.8 42.5
00:40 1013 29.91 843 24.89 11 51.8 69 5.7 42.2
00:45 1013 29.91 842 24.86 11 51.7 68 5.3 41.6
00:50 1013 29.91 842 24.86 11.3 52.3 67 5.4 41.7
00:55 1013 29.91 842 24.86 11.3 52.4 67 5.5 41.9
01:00 1013 29.91 842 24.86 11.1 51.9 68 5.5 41.8
01:05 1013 29.91 842 24.86 10.9 51.7 68 5.4 41.7
01:10 1013 29.91 842 24.86 10.8 51.5 68 5.2 41.4
01:15 1013 29.91 842 24.86 11.2 52.2 66 5.1 41.1
01:20 1013 29.91 842 24.86 11.3 52.3 66 5.3 41.5
01:25 1013 29.91 842 24.86 11.4 52.5 65 5.1 41.1
01:30 1013 29.91 842 24.86 11.4 52.5 65 5.1 41.1
01:35 1013 29.91 842 24.86 11.4 52.4 64 4.9 40.8
01:40 1012 29.88 842 24.86 11.1 52 67 5.2 41.4
01:45 1012 29.88 842 24.86 10.8 51.4 67 5 41
01:50 1012 29.88 841 24.83 10.8 51.5 66 4.7 40.5
01:55 1012 29.88 841 24.83 11.3 52.3 62 4.4 39.8
02:00 1012 29.88 841 24.83 11.9 53.4 61 4.6 40.3
02:05 1012 29.88 841 24.83 11.9 53.5 61 4.7 40.4
02:10 1012 29.88 841 24.83 11.7 53.1 62 4.8 40.6
02:15 1012 29.88 841 24.83 11.6 52.8 63 4.8 40.7
02:20 1012 29.88 841 24.83 11.7 53 62 4.6 40.3
02:25 1012 29.88 841 24.83 12 53.7 61 4.7 40.5
02:30 1012 29.88 841 24.83 11.9 53.3 62 4.9 40.8
02:35 1013 29.91 842 24.86 11.9 53.4 61 4.7 40.4
02:40 1013 29.91 842 24.86 12.4 54.3 61 5.2 41.3
02:45 1013 29.91 842 24.86 12.6 54.7 61 5.3 41.5
02:50 1013 29.91 842 24.86 13.4 56.1 62 6.3 43.4
02:55 1013 29.91 842 24.86 12.9 55.1 67 6.8 44.3
03:00 1013 29.91 842 24.86 12.3 54.1 69 6.8 44.2
03:05 1013 29.91 842 24.86 11.8 53.3 73 7.2 45
03:10 1013 29.91 842 24.86 11.4 52.5 74 7 44.6
03:15 1013 29.91 842 24.86 11.2 52.2 75 6.9 44.5
03:20 1013 29.91 842 24.86 11.2 52.1 75 6.9 44.5
03:25 1013 29.91 842 24.86 10.9 51.7 77 7 44.7
03:30 1013 29.91 842 24.86 10.7 51.2 77 6.9 44.4
03:35 1013 29.91 842 24.86 10.6 51 78 6.9 44.5
03:40 1013 29.91 842 24.86 10.4 50.7 79 6.9 44.4
03:45 1012 29.88 842 24.86 10.3 50.5 79 6.8 44.3
03:50 1012 29.88 841 24.83 10.6 51 78 6.9 44.4
03:55 1012 29.88 841 24.83 11 51.7 76 7 44.5
04:00 1012 29.88 841 24.83 11.1 52 74 6.8 44.2
04:05 1012 29.88 841 24.83 11.2 52.2 72 6.5 43.7
04:10 1012 29.88 841 24.83 11.2 52.2 75 6.9 44.4
04:15 1012 29.88 841 24.83 10.8 51.5 71 5.9 42.6
04:20 1012 29.88 841 24.83 11.2 52.1 70 5.9 42.6
04:25 1012 29.88 841 24.83 11.3 52.3 70 6 42.8
04:30 1012 29.88 841 24.83 10.9 51.6 73 6.4 43.4
04:35 1011 29.85 841 24.83 10.3 50.5 74 6 42.7
04:40 1011 29.85 840 24.81 10.4 50.6 75 6.1 43
04:45 1011 29.85 840 24.81 10.3 50.6 77 6.4 43.6
04:50 1011 29.85 840 24.81 10.3 50.5 77 6.4 43.6
04:55 1011 29.85 840 24.81 10.3 50.5 78 6.6 43.8
05:00 1011 29.85 840 24.81 10.1 50.2 78 6.5 43.7
05:05 1011 29.85 840 24.81 10.3 50.5 77 6.5 43.7
05:10 1011 29.85 840 24.81 10.4 50.7 77 6.6 44
05:15 1011 29.85 840 24.81 10.5 50.8 77 6.7 44
05:20 1011 29.85 840 24.81 10.6 51.1 75 6.5 43.6
05:25 1011 29.85 840 24.81 10.9 51.6 74 6.5 43.8
05:30 1011 29.85 840 24.81 11 51.7 75 6.7 44
05:35 1011 29.85 840 24.81 10.9 51.6 74 6.6 43.8
05:40 1012 29.88 841 24.83 10.9 51.7 75 6.7 44.1
05:45 1013 29.91 842 24.86 10.8 51.4 76 6.8 44.2
05:50 1013 29.91 842 24.86 10.6 51 83 7.8 46
05:55 1013 29.91 843 24.89 9.7 49.5 90 8.1 46.7
06:00 1013 29.91 843 24.89 8.9 47.9 93 7.8 46.1
06:05 1013 29.91 842 24.86 9 48.1 93 7.9 46.3
06:10 1013 29.91 842 24.86 9 48.2 94 8 46.4
06:15 1013 29.91 843 24.89 9 48.1 93 8 46.3
06:20 1013 29.91 842 24.86 8.9 47.9 94 7.9 46.3
06:25 1013 29.91 843 24.89 8.8 47.8 94 7.9 46.2
06:30 1013 29.91 842 24.86 8.8 47.8 94 7.9 46.2
06:35 1012 29.88 841 24.83 8.6 47.5 93 7.6 45.7
06:40 1012 29.88 841 24.83 8.6 47.4 92 7.4 45.3
06:45 1011 29.85 841 24.83 8.5 47.3 92 7.2 45
06:50 1011 29.85 840 24.81 8.4 47.1 92 7.2 45
06:55 1011 29.85 840 24.81 8.4 47 92 7.2 44.9
07:00 1011 29.85 840 24.81 8.4 47.2 90 6.8 44.3
07:05 1011 29.85 841 24.83 8.5 47.4 91 7.2 44.9
07:10 1011 29.85 841 24.83 8.5 47.3 88 6.6 43.9
07:15 1011 29.85 840 24.81 8.7 47.7 89 7 44.5
07:20 1011 29.85 841 24.83 8.6 47.5 88 6.8 44.2
07:25 1012 29.88 841 24.83 8.7 47.7 87 6.7 44
07:30 1012 29.88 841 24.83 8.8 47.8 87 6.8 44.2
07:35 1012 29.88 841 24.83 8.7 47.6 88 6.8 44.3
07:40 1012 29.88 841 24.83 8.6 47.4 88 6.6 43.9
07:45 1011 29.85 841 24.83 8.7 47.6 88 6.8 44.2
07:50 1011 29.85 841 24.83 8.6 47.5 89 6.8 44.3
07:55 1012 29.88 841 24.83 8.5 47.3 89 6.8 44.2
08:00 1012 29.88 841 24.83 8.5 47.2 89 6.8 44.2
08:05 1012 29.88 841 24.83 8.5 47.4 86 6.3 43.4
08:10 1012 29.88 841 24.83 9.2 48.6 84 6.6 43.9
08:15 1012 29.88 841 24.83 9.6 49.3 83 6.9 44.4
08:20 1011 29.85 841 24.83 9.7 49.5 83 6.9 44.4
08:25 1011 29.85 841 24.83 9.8 49.7 81 6.8 44.3
08:30 1011 29.85 841 24.83 9.8 49.6 82 6.9 44.4
08:35 1011 29.85 840 24.81 9.6 49.3 84 7.1 44.7
08:40 1011 29.85 840 24.81 9.8 49.7 85 7.4 45.3
08:45 1011 29.85 840 24.81 9.9 49.8 85 7.5 45.6
08:50 1011 29.85 840 24.81 9.8 49.7 84 7.2 45
08:55 1011 29.85 840 24.81 9.9 49.9 84 7.3 45.1
09:00 1011 29.85 840 24.81 10 50 84 7.4 45.4
09:05 1011 29.85 840 24.81 10.1 50.1 83 7.3 45.1
09:10 1011 29.85 840 24.81 10.4 50.7 81 7.3 45.1
09:15 1011 29.85 840 24.81 10.6 51 80 7.2 45
09:20 1011 29.85 840 24.81 10.7 51.3 82 7.7 45.9
09:25 1011 29.85 840 24.81 10.9 51.5 82 7.9 46.2
09:30 1011 29.85 840 24.81 11.1 51.9 81 8 46.4
09:35 1011 29.85 840 24.81 12 53.6 75 7.8 46
09:40 1011 29.85 840 24.81 13.1 55.6 68 7.4 45.3
09:45 1011 29.85 840 24.81 12.9 55.2 72 8 46.5
09:50 1011 29.85 840 24.81 12.9 55.3 71 7.7 45.9
09:55 1011 29.85 840 24.81 13.3 55.9 68 7.5 45.5
10:00 1011 29.85 840 24.81 13.3 55.9 70 8 46.4
10:05 1011 29.85 840 24.81 13.5 56.4 67 7.7 45.8
10:10 1011 29.85 840 24.81 14.1 57.4 69 8.5 47.3
10:15 1011 29.85 840 24.81 14.9 58.8 66 8.6 47.5
10:20 1011 29.85 840 24.81 15.4 59.6 66 9.2 48.5
10:25 1011 29.85 840 24.81 14.8 58.6 65 8.3 46.9
10:30 1011 29.85 840 24.81 15.4 59.7 64 8.8 47.8
10:35 1011 29.85 840 24.81 15.6 60.1 62 8.4 47.1
10:40 1011 29.85 840 24.81 15.6 60.1 62 8.5 47.4
10:45 1011 29.85 840 24.81 15.8 60.4 61 8.5 47.3
10:50 1011 29.85 841 24.83 15.9 60.6 61 8.5 47.2
10:55 1011 29.85 841 24.83 16 60.7 58 7.9 46.1
11:00 1011 29.85 841 24.83 16 60.9 60 8.3 47
11:05 1011 29.85 840 24.81 16.2 61.2 55 7.3 45.1
11:10 1011 29.85 840 24.81 16.1 61 59 8.1 46.5
11:15 1011 29.85 840 24.81 15.9 60.6 57 7.4 45.4
11:20 1011 29.85 840 24.81 15.3 59.5 62 8.1 46.6
11:25 1011 29.85 840 24.81 14.6 58.4 60 7 44.6
11:30 1011 29.85 840 24.81 14.5 58 61 7.2 44.9
11:35 1011 29.85 840 24.81 14.2 57.5 60 6.6 43.8
11:40 1011 29.85 840 24.81 12.6 54.7 53 3.2 37.8
11:45 1011 29.85 840 24.81 11.4 52.5 55 2.6 36.7
11:50 1011 29.85 840 24.81 11.1 51.9 55 2.4 36.4
11:55 1011 29.85 841 24.83 11.1 52 56 2.7 36.8
12:00 1011 29.85 840 24.81 11 51.8 59 3.3 38
12:05 1011 29.85 840 24.81 10.7 51.3 60 3.4 38.1
12:10 1011 29.85 840 24.81 10.7 51.2 61 3.5 38.3
12:15 1011 29.85 840 24.81 10.7 51.2 62 3.7 38.6
12:20 1011 29.85 840 24.81 10.8 51.4 61 3.6 38.5
12:25 1011 29.85 840 24.81 10.9 51.7 58 3.1 37.5
12:30 1011 29.85 840 24.81 11.3 52.3 57 3.1 37.7
12:35 1011 29.85 840 24.81 11.3 52.4 57 3.1 37.5
12:40 1011 29.85 841 24.83 11.2 52.2 54 2.3 36.1
12:45 1011 29.85 841 24.83 11.3 52.3 53 2.2 36
12:50 1012 29.88 841 24.83 11.4 52.6 54 2.5 36.5
12:55 1012 29.88 841 24.83 11.3 52.3 53 2.1 35.8
13:00 1012 29.88 841 24.83 11.1 52 54 2.1 35.8
13:05 1012 29.88 841 24.83 11.1 51.9 54 2.2 35.9
13:10 1012 29.88 841 24.83 11 51.7 55 2.3 36.1
13:15 1012 29.88 841 24.83 10.9 51.6 57 2.6 36.8
13:20 1012 29.88 841 24.83 10.7 51.2 59 2.9 37.2
13:25 1012 29.88 842 24.86 10.4 50.7 60 2.9 37.3
13:30 1013 29.91 842 24.86 10.2 50.4 61 3.1 37.5
13:35 1012 29.88 842 24.86 10.2 50.3 59 2.7 36.8
13:40 1013 29.91 842 24.86 10.1 50.2 60 2.8 37
13:45 1013 29.91 842 24.86 10.2 50.3 60 2.8 37.1
13:50 1013 29.91 842 24.86 9.8 49.6 62 2.9 37.2
13:55 1013 29.91 842 24.86 8.6 47.5 64 2.3 36.1
14:00 1013 29.91 842 24.86 8.4 47.1 65 2.3 36.2
14:05 1013 29.91 842 24.86 8.6 47.4 67 2.7 36.9
14:10 1013 29.91 842 24.86 8.5 47.3 66 2.6 36.7
14:15 1013 29.91 842 24.86 8.4 47 68 2.8 37.1
14:20 1013 29.91 842 24.86 8.4 47.2 68 2.9 37.2
14:25 1013 29.91 842 24.86 8.2 46.7 69 2.9 37.3
14:30 1013 29.91 842 24.86 8.2 46.7 70 3 37.5
14:35 1013 29.91 842 24.86 8.2 46.8 70 3.1 37.6
14:40 1013 29.91 842 24.86 8.4 47.2 68 3 37.3
14:45 1013 29.91 842 24.86 8.3 46.9 70 3.1 37.6
14:50 1013 29.91 842 24.86 8.3 46.9 71 3.4 38.1
14:55 1013 29.91 842 24.86 8.1 46.6 71 3.2 37.8
15:00 1013 29.91 842 24.86 8 46.4 72 3.3 37.9
15:05 1013 29.91 842 24.86 8 46.3 73 3.4 38.1
15:10 1013 29.91 842 24.86 7.9 46.1 74 3.6 38.4
15:15 1013 29.91 842 24.86 7.7 45.8 77 4 39.1
15:20 1013 29.91 842 24.86 7.5 45.5 79 4 39.3
15:25 1013 29.91 842 24.86 7.4 45.4 76 3.4 38.2
15:30 1013 29.91 843 24.89 7.5 45.5 77 3.7 38.7
15:35 1013 29.91 843 24.89 7.3 45.2 77 3.6 38.5
15:40 1013 29.91 843 24.89 7.2 44.9 78 3.6 38.4
15:45 1013 29.91 842 24.86 7.1 44.7 77 3.3 37.9
15:50 1013 29.91 843 24.89 7 44.6 77 3.3 38
15:55 1013 29.91 843 24.89 7 44.6 71 2.2 36
16:00 1014 29.94 843 24.89 7.2 44.9 71 2.2 36
16:05 1014 29.94 843 24.89 7.4 45.3 65 1.4 34.5
16:10 1014 29.94 843 24.89 7.6 45.7 64 1.3 34.4
16:15 1014 29.94 843 24.89 7.9 46.1 60 0.6 33
16:20 1014 29.94 843 24.89 7.8 46 67 2.1 35.8
16:25 1014 29.94 843 24.89 7.6 45.6 69 2.3 36.1
16:30 1014 29.94 843 24.89 7.3 45.1 69 2.1 35.8
16:35 1014 29.94 843 24.89 7.2 44.9 69 2 35.5
16:40 1014 29.94 843 24.89 7.1 44.7 66 1.1 34.1
16:45 1014 29.94 843 24.89 7.2 44.9 64 0.8 33.5
16:50 1014 29.94 843 24.89 7.2 45 64 0.8 33.5
16:55 1014 29.94 843 24.89 7.1 44.7 66 1.2 34.1
17:00 1014 29.94 843 24.89 7 44.6 65 0.9 33.5
17:05 1014 29.94 844 24.92 6.8 44.3 67 1.1 34
17:10 1014 29.94 844 24.92 6.6 43.8 72 1.9 35.4
17:15 1014 29.94 844 24.92 6.2 43.2 72 1.6 34.8
17:20 1015 29.97 844 24.92 6.1 43 73 1.6 34.8
17:25 1015 29.97 844 24.92 6.3 43.4 71 1.5 34.8
17:30 1015 29.97 844 24.92 6.6 43.8 70 1.5 34.7
17:35 1015 29.97 844 24.92 6.3 43.4 74 2 35.5
17:40 1015 29.97 844 24.92 6.1 42.9 75 2.1 35.7
17:45 1015 29.97 844 24.92 5.9 42.7 76 2.1 35.8
17:50 1015 29.97 844 24.92 5.8 42.4 76 1.8 35.3
17:55 1015 29.97 844 24.92 5.8 42.4 78 2.2 35.9
18:00 1015 29.97 844 24.92 5.8 42.5 78 2.3 36.1
18:05 1015 29.97 844 24.92 5.7 42.3 80 2.6 36.6
18:10 1015 29.97 844 24.92 5.5 41.9 80 2.3 36.2
18:15 1015 29.97 844 24.92 5.5 41.9 79 2.2 36
18:20 1015 29.97 844 24.92 5.5 41.9 78 2 35.6
18:25 1015 29.97 844 24.92 5.5 42 78 2 35.6
18:30 1015 29.97 844 24.92 5.5 42 77 1.8 35.3
18:35 1015 29.97 844 24.92 5.6 42 77 1.9 35.3
18:40 1015 29.97 844 24.92 5.7 42.2 77 1.9 35.4
18:45 1015 29.97 845 24.95 5.8 42.5 76 2 35.5
18:50 1015 29.97 845 24.95 5.9 42.6 78 2.4 36.2
18:55 1015 29.97 845 24.95 5.8 42.5 79 2.4 36.4
19:00 1015 29.97 844 24.92 5.9 42.5 79 2.5 36.5
19:05 1015 29.97 844 24.92 5.8 42.5 80 2.7 36.9
19:10 1015 29.97 844 24.92 5.8 42.5 80 2.7 36.8
19:15 1015 29.97 844 24.92 5.8 42.4 80 2.6 36.7
19:20 1015 29.97 844 24.92 5.7 42.3 80 2.5 36.5
19:25 1015 29.97 845 24.95 5.7 42.3 80 2.5 36.4
19:30 1015 29.97 845 24.95 5.7 42.2 79 2.4 36.3
19:35 1016 30 845 24.95 5.6 42 80 2.3 36.2
19:40 1016 30 845 24.95 5.6 42.1 79 2.2 36
19:45 1016 30 845 24.95 5.5 42 80 2.3 36.1
19:50 1016 30 845 24.95 5.4 41.7 79 2.1 35.7
19:55 1016 30 845 24.95 5.4 41.7 78 1.9 35.4
20:00 1016 30 845 24.95 5.4 41.8 77 1.8 35.2
20:05 1016 30 845 24.95 5.5 41.9 78 2 35.6
20:10 1016 30 845 24.95 5.5 41.8 78 2 35.6
20:15 1016 30 845 24.95 5.4 41.7 79 2.1 35.7
20:20 1016 30 845 24.95 5.3 41.6 79 2 35.6
20:25 1016 30 845 24.95 5.2 41.4 79 1.8 35.3
20:30 1016 30 845 24.95 5.1 41.3 80 2 35.5
20:35 1016 30 845 24.95 5.1 41.2 79 1.8 35.3
20:40 1016 30 846 24.98 5.2 41.4 79 1.8 35.3
20:45 1017 30.03 846 24.98 5.6 42.1 74 1.4 34.5
20:50 1017 30.03 846 24.98 6.1 43 66 0.3 32.5
20:55 1017 30.03 846 24.98 6.3 43.4 64 -0 32
21:00 1017 30.03 847 25.01 6.5 43.6 68 1 33.7
21:05 1017 30.03 846 24.98 6.1 43 65 -0 32
21:10 1017 30.03 846 24.98 5.9 42.7 63 -0.5 31.2
21:15 1017 30.03 846 24.98 6.3 43.3 57 -1.5 29.3
21:20 1017 30.03 846 24.98 6.5 43.6 55 -2 28.4
21:25 1017 30.03 846 24.98 6.5 43.7 58 -1.1 30
21:30 1017 30.03 846 24.98 6.5 43.7 58 -1.1 30
21:35 1017 30.03 846 24.98 6.3 43.3 64 0.1 32.2
21:40 1017 30.03 846 24.98 5.7 42.3 69 0.6 33
21:45 1017 30.03 846 24.98 5.3 41.6 72 0.7 33.3
21:50 1017 30.03 846 24.98 5 41.1 75 0.9 33.7
21:55 1017 30.03 846 24.98 4.9 40.7 75 0.7 33.3
22:00 1017 30.03 846 24.98 4.9 40.8 74 0.7 33.3
22:05 1017 30.03 846 24.98 4.9 40.9 74 0.6 33.1
22:10 1017 30.03 846 24.98 5 41 74 0.8 33.5
22:15 1017 30.03 846 24.98 4.8 40.7 76 0.9 33.7
22:20 1017 30.03 846 24.98 5 40.9 73 0.5 32.9
22:25 1017 30.03 846 24.98 5.1 41.1 74 0.8 33.4
22:30 1017 30.03 846 24.98 4.6 40.2 75 0.5 33
22:35 1017 30.03 846 24.98 4.3 39.8 76 0.5 33
22:40 1017 30.03 846 24.98 4.2 39.5 76 0.3 32.5
22:45 1017 30.03 846 24.98 3.9 39.1 75 -0.1 31.8
22:50 1017 30.03 846 24.98 3.8 38.9 76 -0 32
22:55 1017 30.03 846 24.98 3.7 38.6 77 0 32
23:00 1017 30.03 846 24.98 3.9 39 74 -0.3 31.5
23:05 1017 30.03 846 24.98 4.1 39.4 73 -0.3 31.5
23:10 1017 30.03 846 24.98 4.2 39.6 70 -0.7 30.7
23:15 1017 30.03 846 24.98 4.5 40.1 68 -0.8 30.6
23:20 1017 30.03 846 24.98 4.4 39.9 71 -0.5 31.1
23:25 1017 30.03 846 24.98 4.2 39.5 71 -0.7 30.8
23:30 1017 30.03 846 24.98 4.3 39.7 68 -1.1 30.1
23:35 1017 30.03 846 24.98 4.3 39.7 70 -0.6 30.8
23:40 1017 30.03 846 24.98 4.1 39.4 72 -0.6 30.9
23:45 1017 30.03 846 24.98 4 39.2 74 -0.2 31.6
23:50 1017 30.03 846 24.98 4 39.3 68 -1.4 29.5
23:55 1017 30.03 846 24.98 4.9 40.7 65 -1.1 29.9
24:00 1017 30.03 846 24.98 4.9 40.9 65 -1.1 30.1